createdAt,value
2018-10-02T00:00:06.397Z,9.55
2018-10-02T00:04:59.643Z,5.95
2018-10-02T00:09:52.887Z,7.35
2018-10-02T00:14:46.188Z,6.53
2018-10-02T00:19:39.446Z,3.42
2018-10-02T00:24:32.686Z,8.13
2018-10-02T00:29:25.947Z,4.55
2018-10-02T00:34:19.267Z,6.72
2018-10-02T00:39:12.563Z,6.72
2018-10-02T00:44:05.826Z,4.60
2018-10-02T00:48:59.198Z,4.83
2018-10-02T00:53:52.424Z,7.62
2018-10-02T00:58:45.678Z,11.08
2018-10-02T01:03:38.884Z,5.37
2018-10-02T01:08:32.112Z,6.08
2018-10-02T01:13:25.359Z,8.33
2018-10-02T01:18:18.632Z,8.15
2018-10-02T01:23:11.972Z,7.47
2018-10-02T01:28:06.079Z,7.33
2018-10-02T01:32:59.322Z,7.30
2018-10-02T01:37:52.675Z,6.30
2018-10-02T01:42:45.938Z,8.75
2018-10-02T01:47:39.214Z,12.03
2018-10-02T01:52:32.455Z,10.50
2018-10-02T01:57:25.692Z,7.83
2018-10-02T02:02:19.037Z,9.65
2018-10-02T02:07:12.318Z,9.93
2018-10-02T02:12:05.557Z,10.37
2018-10-02T02:16:58.781Z,10.13
2018-10-02T02:21:52.054Z,9.35
2018-10-02T02:26:45.318Z,9.63
2018-10-02T02:31:38.609Z,7.67
2018-10-02T02:36:31.927Z,7.50
2018-10-02T02:41:25.180Z,10.38
2018-10-02T02:46:18.396Z,7.12
2018-10-02T02:51:28.216Z,7.78
2018-10-02T02:56:21.491Z,6.83
2018-10-02T03:01:15.422Z,8.05
2018-10-02T03:06:09.195Z,8.18
2018-10-02T03:11:02.424Z,8.50
2018-10-02T03:15:55.672Z,6.85
2018-10-02T03:20:48.920Z,10.45
2018-10-02T03:25:42.677Z,7.17
2018-10-02T03:30:35.878Z,7.80
2018-10-02T03:35:29.124Z,5.70
2018-10-02T03:40:22.373Z,8.53
2018-10-02T03:45:15.601Z,4.85
2018-10-02T03:50:08.822Z,7.35
2018-10-02T03:55:02.057Z,5.72
2018-10-02T03:59:55.281Z,8.28
2018-10-02T04:04:48.531Z,5.45
2018-10-02T04:09:41.818Z,7.47
2018-10-02T04:14:35.202Z,7.30
2018-10-02T04:19:29.146Z,8.40
2018-10-02T04:24:22.528Z,6.67
2018-10-02T04:29:16.324Z,4.37
2018-10-02T04:34:09.639Z,9.00
2018-10-02T04:39:04.609Z,5.40
2018-10-02T04:43:57.850Z,8.73
2018-10-02T04:48:51.180Z,12.23
2018-10-02T04:53:44.421Z,12.23
2018-10-02T04:58:37.732Z,8.13
2018-10-02T05:03:31.056Z,12.28
2018-10-02T05:08:24.485Z,11.30
2018-10-02T05:13:18.092Z,9.03
2018-10-02T05:18:11.351Z,7.87
2018-10-02T05:23:04.648Z,6.92
2018-10-02T05:27:57.855Z,6.75
2018-10-02T05:32:51.135Z,10.72
2018-10-02T05:37:45.164Z,10.70
2018-10-02T05:42:38.420Z,6.67
2018-10-02T05:47:31.667Z,6.20
2018-10-02T05:52:24.905Z,6.08
2018-10-02T05:57:18.239Z,6.83
2018-10-02T06:02:12.203Z,8.50
2018-10-02T06:07:05.905Z,6.80
2018-10-02T06:11:59.200Z,5.25
2018-10-02T06:16:52.410Z,6.20
2018-10-02T06:21:45.727Z,6.92
2018-10-02T06:26:38.976Z,5.87
2018-10-02T06:31:32.254Z,8.10
2018-10-02T06:36:25.507Z,7.65
2018-10-02T06:41:18.829Z,7.55
2018-10-02T06:46:12.135Z,8.15
2018-10-02T06:51:05.838Z,7.35
2018-10-02T06:55:59.015Z,6.20
2018-10-02T07:00:52.261Z,6.58
2018-10-02T07:05:45.539Z,6.70
2018-10-02T07:10:38.952Z,9.95
2018-10-02T07:15:32.266Z,8.43
2018-10-02T07:20:25.607Z,6.75
2018-10-02T07:25:18.864Z,6.55
2018-10-02T07:30:12.120Z,5.75
2018-10-02T07:35:05.428Z,5.75
2018-10-02T07:39:58.726Z,7.42
2018-10-02T07:44:52.028Z,10.65
2018-10-02T07:49:45.551Z,6.92
2018-10-02T07:54:38.837Z,5.00
2018-10-02T07:59:32.100Z,5.28
2018-10-02T08:04:25.402Z,8.15
2018-10-02T08:09:19.085Z,3.50
2018-10-02T08:14:12.602Z,7.45
2018-10-02T08:19:06.023Z,4.05
2018-10-02T08:23:59.322Z,5.03
2018-10-02T08:28:53.024Z,5.37
2018-10-02T08:33:46.366Z,4.28
2018-10-02T08:38:39.672Z,12.13
2018-10-02T08:43:33.451Z,7.70
2018-10-02T08:48:26.951Z,6.92
2018-10-02T08:53:20.248Z,7.58
2018-10-02T08:58:14.307Z,5.47
2018-10-02T09:03:07.894Z,6.90
2018-10-02T09:08:01.282Z,4.08
2018-10-02T09:12:54.691Z,7.40
2018-10-02T09:17:48.074Z,5.37
2018-10-02T09:22:41.552Z,8.18
2018-10-02T09:27:34.926Z,7.15
2018-10-02T09:33:35.528Z,5.55
2018-10-02T09:38:34.399Z,11.38
2018-10-02T09:43:32.242Z,5.37
2018-10-02T09:48:25.495Z,4.55
2018-10-02T09:53:18.809Z,5.53
2018-10-02T09:58:12.260Z,5.87
2018-10-02T10:03:05.712Z,2.10
2018-10-02T10:07:58.918Z,4.50
2018-10-02T10:12:52.462Z,4.20
2018-10-02T10:17:45.943Z,3.17
2018-10-02T10:22:39.309Z,3.05
2018-10-02T10:27:32.731Z,3.70
2018-10-02T10:32:27.570Z,5.28
2018-10-02T10:37:20.865Z,6.37
2018-10-02T10:42:14.136Z,5.28
2018-10-02T10:47:09.050Z,3.50
2018-10-02T10:52:02.530Z,5.45
2018-10-02T10:56:55.867Z,4.00
2018-10-02T11:01:49.164Z,4.00
2018-10-02T11:06:42.765Z,3.95
2018-10-02T11:11:37.065Z,3.80
2018-10-02T11:16:30.355Z,5.22
2018-10-02T11:21:23.603Z,2.95
2018-10-02T11:26:16.872Z,5.58
2018-10-02T11:31:10.261Z,4.83
2018-10-02T11:36:03.684Z,3.45
2018-10-02T11:40:56.980Z,4.20
2018-10-02T11:45:50.275Z,3.70
2018-10-02T11:50:43.507Z,2.87
2018-10-02T11:55:36.946Z,3.17
2018-10-02T12:00:30.314Z,3.87
2018-10-02T12:05:23.552Z,3.52
2018-10-02T12:10:16.794Z,3.42
2018-10-02T12:15:10.254Z,2.08
2018-10-02T12:20:04.065Z,1.20
2018-10-02T12:24:57.488Z,2.72
2018-10-02T12:29:50.953Z,1.35
2018-10-02T12:34:44.174Z,2.00
2018-10-02T12:39:37.623Z,7.20
2018-10-02T12:44:31.644Z,4.70
2018-10-02T12:49:24.873Z,7.78
2018-10-02T12:54:18.626Z,4.35
2018-10-02T12:59:12.232Z,1.90
2018-10-02T13:04:05.821Z,8.08
2018-10-02T13:08:59.070Z,7.12
2018-10-02T13:13:52.286Z,1.82
2018-10-02T13:18:45.561Z,1.00
2018-10-02T13:23:38.887Z,1.57
2018-10-02T13:28:32.279Z,2.15
2018-10-02T13:33:25.579Z,2.80
2018-10-02T13:38:18.924Z,1.20
2018-10-02T13:43:12.368Z,10.70
2018-10-02T13:48:06.560Z,1.20
2018-10-02T13:52:59.799Z,2.40
2018-10-02T13:57:53.034Z,9.78
2018-10-02T14:02:46.269Z,2.20
2018-10-02T14:07:39.504Z,3.12
2018-10-02T14:12:33.187Z,3.27
2018-10-02T14:17:26.676Z,2.15
2018-10-02T14:22:20.058Z,1.20
2018-10-02T14:27:13.536Z,8.80
2018-10-02T14:32:07.085Z,4.72
2018-10-02T14:37:00.470Z,2.00
2018-10-02T14:41:53.735Z,2.60
2018-10-02T14:46:47.089Z,3.62
2018-10-02T14:51:41.082Z,3.77
2018-10-02T14:56:34.335Z,4.15
2018-10-02T15:01:27.675Z,7.30
2018-10-02T15:06:21.021Z,5.62
2018-10-02T15:11:14.279Z,4.22
2018-10-02T15:16:07.781Z,4.42
2018-10-02T15:21:01.065Z,8.88
2018-10-02T15:25:54.322Z,6.20
2018-10-02T15:30:47.635Z,8.75
2018-10-02T15:35:41.616Z,8.75
2018-10-02T15:40:34.871Z,8.83
2018-10-02T15:45:28.247Z,6.20
2018-10-02T15:50:21.835Z,7.33
2018-10-02T15:55:15.087Z,5.85
2018-10-02T16:00:08.875Z,9.40
2018-10-02T16:05:02.441Z,5.45
2018-10-02T16:09:55.666Z,6.37
2018-10-02T16:14:48.937Z,10.98
2018-10-02T16:19:42.174Z,12.03
2018-10-02T16:24:35.481Z,12.20
2018-10-02T16:29:28.896Z,6.58
2018-10-02T16:34:22.242Z,8.38
2018-10-02T16:39:15.463Z,9.75
2018-10-02T16:44:08.703Z,13.60
2018-10-02T16:49:02.200Z,13.20
2018-10-02T16:53:55.463Z,12.82
2018-10-02T16:58:48.741Z,10.35
2018-10-02T17:03:42.017Z,7.95
2018-10-02T17:08:35.228Z,7.22
2018-10-02T17:13:28.451Z,8.00
2018-10-02T17:18:21.703Z,11.97
2018-10-02T17:23:15.987Z,10.88
2018-10-02T17:28:09.227Z,10.35
2018-10-02T17:33:02.527Z,11.55
2018-10-02T17:37:55.767Z,12.73
2018-10-02T17:42:49.040Z,11.18
2018-10-02T17:47:42.313Z,14.30
2018-10-02T17:52:35.585Z,12.35
2018-10-02T17:57:28.807Z,10.90
2018-10-02T18:02:22.115Z,11.45
2018-10-02T18:07:15.351Z,9.85
2018-10-02T18:12:08.679Z,13.80
2018-10-02T18:17:02.325Z,11.73
2018-10-02T18:21:55.580Z,12.18
2018-10-02T18:26:48.835Z,12.05
2018-10-02T18:31:48.689Z,11.30
2018-10-02T18:36:42.233Z,12.58
2018-10-02T18:41:35.536Z,12.53
2018-10-02T18:46:28.833Z,10.55
2018-10-02T18:51:22.094Z,13.40
2018-10-02T18:56:15.516Z,13.75
2018-10-02T19:01:09.011Z,11.60
2018-10-02T19:06:02.401Z,10.10
2018-10-02T19:11:00.091Z,12.73
2018-10-02T19:15:58.988Z,13.38
2018-10-02T19:20:52.846Z,12.13
2018-10-02T19:25:51.689Z,12.98
2018-10-02T19:30:50.733Z,11.03
2018-10-02T19:35:43.973Z,11.53
2018-10-02T19:40:37.253Z,11.75
2018-10-02T19:45:36.219Z,13.18
2018-10-02T19:50:29.502Z,9.43
2018-10-02T19:55:22.749Z,13.03
2018-10-02T20:00:16.016Z,12.85
2018-10-02T20:05:09.303Z,9.68
2018-10-02T20:10:02.620Z,12.00
2018-10-02T20:14:55.864Z,9.83
2018-10-02T20:19:49.135Z,12.07
2018-10-02T20:24:42.383Z,11.12
2018-10-02T20:29:35.622Z,11.50
2018-10-02T20:34:28.836Z,17.45
2018-10-02T20:39:22.109Z,12.10
2018-10-02T20:44:15.341Z,12.65
2018-10-02T20:49:08.690Z,13.80
2018-10-02T20:54:01.884Z,12.63
2018-10-02T20:58:55.200Z,15.10
2018-10-02T21:03:48.484Z,17.02
2018-10-02T21:08:41.769Z,13.75
2018-10-02T21:13:35.036Z,13.28
2018-10-02T21:18:30.661Z,14.00
2018-10-02T21:23:24.425Z,13.45
2018-10-02T21:28:18.589Z,15.13
2018-10-02T21:33:11.864Z,16.55
2018-10-02T21:38:05.250Z,14.90
2018-10-02T21:42:58.501Z,14.85
2018-10-02T21:47:51.750Z,14.13
2018-10-02T21:52:45.054Z,13.15
2018-10-02T21:57:38.344Z,15.83
2018-10-02T22:02:31.672Z,13.85
2018-10-02T22:07:25.009Z,12.80
2018-10-02T22:12:18.277Z,13.95
2018-10-02T22:17:11.531Z,17.92
2018-10-02T22:22:04.852Z,15.00
2018-10-02T22:26:58.099Z,14.35
2018-10-02T22:31:58.065Z,16.10
2018-10-02T22:36:51.308Z,14.70
2018-10-02T22:41:45.402Z,13.32
2018-10-02T22:46:38.643Z,15.15
2018-10-02T22:51:31.961Z,14.38
2018-10-02T22:56:25.329Z,15.63
2018-10-02T23:01:18.614Z,14.30
2018-10-02T23:06:11.870Z,12.85
2018-10-02T23:11:05.468Z,12.00
2018-10-02T23:15:58.717Z,11.90
2018-10-02T23:20:51.977Z,12.05
2018-10-02T23:25:45.267Z,12.13
2018-10-02T23:30:38.523Z,11.03
2018-10-02T23:35:31.798Z,10.65
2018-10-02T23:40:25.140Z,10.13
2018-10-02T23:45:18.489Z,12.60
2018-10-02T23:50:11.781Z,12.78
2018-10-02T23:55:05.124Z,14.13
2018-10-02T23:59:58.407Z,12.58
